createdAt,value
2023-01-19T00:02:09.472Z,74.97
2023-01-19T00:05:31.263Z,74.51
2023-01-19T00:08:53.007Z,74.60
2023-01-19T00:12:16.334Z,75.14
2023-01-19T00:15:38.285Z,74.82
2023-01-19T00:19:00.124Z,74.45
2023-01-19T00:22:22.044Z,74.95
2023-01-19T00:25:44.249Z,74.46
2023-01-19T00:29:07.819Z,73.94
2023-01-19T00:32:29.582Z,73.59
2023-01-19T00:35:52.690Z,73.84
2023-01-19T00:39:14.586Z,74.37
2023-01-19T00:42:41.346Z,73.73
2023-01-19T00:46:04.455Z,73.43
2023-01-19T00:49:26.477Z,74.35
2023-01-19T00:52:48.043Z,73.95
2023-01-19T00:56:09.839Z,74.69
2023-01-19T00:59:31.120Z,74.51
2023-01-19T01:02:54.674Z,73.86
2023-01-19T01:06:16.515Z,74.11
2023-01-19T01:09:38.270Z,74.80
2023-01-19T01:13:00.027Z,73.70
2023-01-19T01:16:41.572Z,74.00
2023-01-19T01:20:05.606Z,74.59
2023-01-19T01:23:27.080Z,74.58
2023-01-19T01:26:48.815Z,75.35
2023-01-19T01:30:12.880Z,75.33
2023-01-19T01:33:41.113Z,75.00
2023-01-19T01:37:06.018Z,75.85
2023-01-19T01:40:28.482Z,75.09
2023-01-19T01:43:51.642Z,75.43
2023-01-19T01:47:13.571Z,74.84
2023-01-19T01:50:38.979Z,75.53
2023-01-19T01:54:12.719Z,74.73
2023-01-19T01:57:38.019Z,75.25
2023-01-19T02:01:16.847Z,74.66
2023-01-19T02:04:39.467Z,75.34
2023-01-19T02:08:21.877Z,73.51
2023-01-19T02:12:02.401Z,73.87
2023-01-19T02:15:24.062Z,72.91
2023-01-19T02:18:46.233Z,73.76
2023-01-19T02:22:13.915Z,72.70
2023-01-19T02:25:36.847Z,73.69
2023-01-19T02:29:01.293Z,73.39
2023-01-19T02:32:23.203Z,73.63
2023-01-19T02:35:46.806Z,73.69
2023-01-19T02:39:10.858Z,73.58
2023-01-19T02:42:38.183Z,72.97
2023-01-19T02:46:00.237Z,72.78
2023-01-19T02:49:21.895Z,73.18
2023-01-19T02:52:43.883Z,74.01
2023-01-19T02:56:18.735Z,73.47
2023-01-19T02:59:54.746Z,73.59
2023-01-19T03:03:27.253Z,73.55
2023-01-19T03:06:53.609Z,74.31
2023-01-19T03:10:21.523Z,74.15
2023-01-19T03:13:48.394Z,75.35
2023-01-19T03:17:13.801Z,75.19
2023-01-19T03:20:35.478Z,73.82
2023-01-19T03:24:01.896Z,74.05
2023-01-19T03:27:27.261Z,74.50
2023-01-19T03:30:55.568Z,74.23
2023-01-19T03:34:22.080Z,72.58
2023-01-19T03:37:46.043Z,73.96
2023-01-19T03:41:12.586Z,73.17
2023-01-19T03:44:38.415Z,73.35
2023-01-19T03:48:00.871Z,73.59
2023-01-19T03:51:23.768Z,74.41
2023-01-19T03:54:45.358Z,74.54
2023-01-19T03:58:06.983Z,74.26
2023-01-19T04:01:28.806Z,74.92
2023-01-19T04:04:50.507Z,74.78
2023-01-19T04:08:14.008Z,73.67
2023-01-19T04:11:36.021Z,74.83
2023-01-19T04:14:57.542Z,74.43
2023-01-19T04:18:19.614Z,74.56
2023-01-19T04:21:41.171Z,73.66
2023-01-19T04:25:04.500Z,73.15
2023-01-19T04:28:26.590Z,72.94
2023-01-19T04:31:48.140Z,73.23
2023-01-19T04:35:10.418Z,72.58
2023-01-19T04:38:32.244Z,72.83
2023-01-19T04:41:56.277Z,73.34
2023-01-19T04:45:18.565Z,73.10
2023-01-19T04:48:41.326Z,73.87
2023-01-19T04:52:04.167Z,73.88
2023-01-19T04:55:26.055Z,73.64
2023-01-19T04:58:48.742Z,72.88
2023-01-19T05:02:11.682Z,73.54
2023-01-19T05:05:34.148Z,73.97
2023-01-19T05:08:55.577Z,73.91
2023-01-19T05:12:17.656Z,74.05
2023-01-19T05:15:40.799Z,74.28
2023-01-19T05:19:02.666Z,74.11
2023-01-19T05:22:24.532Z,74.34
2023-01-19T05:25:46.581Z,73.75
2023-01-19T05:29:08.179Z,74.47
2023-01-19T05:32:31.154Z,73.75
2023-01-19T05:35:53.236Z,74.47
2023-01-19T05:39:14.973Z,74.20
2023-01-19T05:42:37.725Z,74.61
2023-01-19T05:45:59.166Z,76.78
2023-01-19T05:49:22.324Z,78.02
2023-01-19T05:52:44.619Z,77.34
2023-01-19T05:56:10.529Z,77.51
2023-01-19T05:59:32.474Z,77.75
2023-01-19T06:02:54.128Z,77.88
2023-01-19T06:06:17.382Z,77.15
2023-01-19T06:09:39.304Z,76.83
2023-01-19T06:13:01.103Z,76.29
2023-01-19T06:16:22.988Z,76.57
2023-01-19T06:19:44.670Z,76.13
2023-01-19T06:23:07.612Z,76.53
2023-01-19T06:26:29.291Z,75.81
2023-01-19T06:29:50.712Z,75.14
2023-01-19T06:33:12.550Z,75.32
2023-01-19T06:36:34.591Z,75.95
2023-01-19T06:39:57.885Z,75.59
2023-01-19T06:43:20.352Z,74.78
2023-01-19T06:46:42.455Z,74.48
2023-01-19T06:50:04.278Z,74.41
2023-01-19T06:53:27.967Z,74.58
2023-01-19T06:56:50.812Z,74.08
2023-01-19T07:00:14.896Z,74.24
2023-01-19T07:03:38.483Z,74.89
2023-01-19T07:07:00.197Z,74.98
2023-01-19T07:10:22.497Z,74.20
2023-01-19T07:13:51.416Z,74.16
2023-01-19T07:17:13.904Z,74.33
2023-01-19T07:20:36.018Z,73.87
2023-01-19T07:23:57.882Z,73.42
2023-01-19T07:27:19.526Z,73.81
2023-01-19T07:30:43.492Z,73.38
2023-01-19T07:34:05.487Z,73.53
2023-01-19T07:37:26.806Z,73.72
2023-01-19T07:40:48.558Z,73.87
2023-01-19T07:44:10.386Z,73.63
2023-01-19T07:47:33.334Z,73.49
2023-01-19T07:51:00.394Z,73.56
2023-01-19T07:54:21.974Z,74.15
2023-01-19T07:57:44.097Z,73.80
2023-01-19T08:01:08.006Z,73.60
2023-01-19T08:04:31.098Z,73.59
2023-01-19T08:07:54.196Z,73.62
2023-01-19T08:11:15.914Z,73.52
2023-01-19T08:14:38.194Z,73.32
2023-01-19T08:18:01.335Z,73.29
2023-01-19T08:21:24.340Z,73.20
2023-01-19T08:24:46.114Z,73.10
2023-01-19T08:28:08.406Z,73.20
2023-01-19T08:31:30.821Z,72.99
2023-01-19T08:34:53.236Z,72.94
2023-01-19T08:38:17.143Z,73.03
2023-01-19T08:41:38.783Z,72.66
2023-01-19T08:45:00.693Z,72.76
2023-01-19T08:48:24.239Z,72.83
2023-01-19T08:51:47.360Z,72.85
2023-01-19T08:55:11.862Z,72.69
2023-01-19T08:58:33.784Z,72.77
2023-01-19T09:01:55.873Z,72.89
2023-01-19T09:05:18.083Z,72.56
2023-01-19T09:08:39.735Z,72.93
2023-01-19T09:12:02.527Z,72.94
2023-01-19T09:15:24.370Z,72.99
2023-01-19T09:18:46.258Z,72.54
2023-01-19T09:22:07.999Z,72.07
2023-01-19T09:25:29.916Z,72.32
2023-01-19T09:28:53.025Z,72.85
2023-01-19T09:32:14.680Z,72.13
2023-01-19T09:35:36.941Z,71.39
2023-01-19T09:38:59.040Z,71.99
2023-01-19T09:42:28.050Z,72.24
2023-01-19T09:45:53.313Z,71.18
2023-01-19T09:49:17.193Z,71.73
2023-01-19T09:52:42.385Z,71.68
2023-01-19T09:56:03.802Z,70.78
2023-01-19T09:59:26.826Z,70.31
2023-01-19T10:02:54.200Z,70.66
2023-01-19T10:06:17.399Z,70.55
2023-01-19T10:09:50.548Z,71.13
2023-01-19T10:13:23.887Z,70.13
2023-01-19T10:16:54.172Z,70.45
2023-01-19T10:20:23.991Z,70.78
2023-01-19T10:23:49.197Z,69.98
2023-01-19T10:27:17.943Z,70.19
2023-01-19T10:30:42.444Z,69.90
2023-01-19T10:34:05.228Z,70.46
2023-01-19T10:37:33.906Z,69.99
2023-01-19T10:41:00.637Z,70.20
2023-01-19T10:44:27.161Z,68.98
2023-01-19T10:47:50.268Z,69.32
2023-01-19T10:51:12.997Z,68.85
2023-01-19T10:54:38.432Z,69.33
2023-01-19T10:58:01.268Z,68.29
2023-01-19T11:01:24.919Z,68.53
2023-01-19T11:04:50.184Z,68.96
2023-01-19T11:08:23.923Z,68.79
2023-01-19T11:11:50.905Z,69.14
2023-01-19T11:15:17.317Z,68.31
2023-01-19T11:18:40.752Z,68.87
2023-01-19T11:22:16.377Z,68.08
2023-01-19T11:25:38.158Z,68.21
2023-01-19T11:29:03.089Z,68.52
2023-01-19T11:32:26.795Z,68.43
2023-01-19T11:35:49.904Z,67.83
2023-01-19T11:39:23.692Z,68.39
2023-01-19T11:42:45.710Z,68.28
2023-01-19T11:46:12.592Z,68.15
2023-01-19T11:49:43.400Z,68.58
2023-01-19T11:53:08.250Z,68.06
2023-01-19T11:56:31.255Z,68.22
2023-01-19T11:59:52.706Z,68.00
2023-01-19T12:03:31.903Z,68.12
2023-01-19T12:06:56.347Z,67.44
2023-01-19T12:10:27.012Z,68.06
2023-01-19T12:13:49.618Z,66.63
2023-01-19T12:17:20.419Z,67.55
2023-01-19T12:20:46.704Z,67.15
2023-01-19T12:24:17.119Z,67.19
2023-01-19T12:27:41.884Z,67.51
2023-01-19T12:31:04.977Z,67.91
2023-01-19T12:34:36.011Z,67.76
2023-01-19T12:37:58.837Z,67.49
2023-01-19T12:41:28.366Z,67.11
2023-01-19T12:44:54.438Z,67.69
2023-01-19T12:48:26.159Z,67.05
2023-01-19T12:51:49.403Z,66.92
2023-01-19T12:55:24.232Z,67.58
2023-01-19T12:58:50.142Z,67.52
2023-01-19T13:02:43.331Z,67.49
2023-01-19T13:06:05.275Z,67.02
2023-01-19T13:09:30.554Z,67.26
2023-01-19T13:13:17.624Z,67.48
2023-01-19T13:16:59.848Z,67.00
2023-01-19T13:20:27.454Z,66.60
2023-01-19T13:23:54.239Z,67.28
2023-01-19T13:27:15.930Z,66.91
2023-01-19T13:30:51.401Z,67.43
2023-01-19T13:34:15.595Z,67.87
2023-01-19T13:37:41.564Z,67.41
2023-01-19T13:41:04.246Z,67.64
2023-01-19T13:44:28.560Z,67.37
2023-01-19T13:47:53.577Z,67.50
2023-01-19T13:51:19.756Z,67.69
2023-01-19T13:54:49.275Z,67.48
2023-01-19T13:58:22.159Z,67.86
2023-01-19T14:01:45.802Z,67.46
2023-01-19T14:05:15.985Z,67.80
2023-01-19T14:08:38.672Z,67.63
2023-01-19T14:12:14.396Z,68.03
2023-01-19T14:15:36.007Z,68.01
2023-01-19T14:19:02.225Z,67.70
2023-01-19T14:22:41.467Z,67.90
2023-01-19T14:26:03.435Z,68.07
2023-01-19T14:29:27.658Z,68.13
2023-01-19T14:32:49.424Z,68.02
2023-01-19T14:36:21.230Z,68.20
2023-01-19T14:39:47.501Z,68.24
2023-01-19T14:43:14.674Z,67.89
2023-01-19T14:46:36.558Z,68.45
2023-01-19T14:50:01.738Z,68.49
2023-01-19T14:53:27.695Z,68.61
2023-01-19T14:56:50.312Z,68.73
2023-01-19T15:00:17.505Z,68.90
2023-01-19T15:03:44.840Z,68.64
2023-01-19T15:07:07.552Z,69.05
2023-01-19T15:10:29.034Z,69.37
2023-01-19T15:13:52.447Z,69.41
2023-01-19T15:17:25.212Z,69.14
2023-01-19T15:20:46.707Z,69.38
2023-01-19T15:24:08.205Z,69.61
2023-01-19T15:27:30.080Z,69.52
2023-01-19T15:30:54.139Z,69.95
2023-01-19T15:34:15.996Z,69.35
2023-01-19T15:37:38.189Z,69.96
2023-01-19T15:40:59.833Z,69.75
2023-01-19T15:44:21.623Z,69.90
2023-01-19T15:47:45.186Z,69.61
2023-01-19T15:51:07.254Z,69.44
2023-01-19T15:54:28.822Z,69.74
2023-01-19T15:57:50.169Z,70.22
2023-01-19T16:01:14.451Z,69.56
2023-01-19T16:04:37.579Z,69.37
2023-01-19T16:08:01.122Z,69.95
2023-01-19T16:11:23.136Z,69.84
2023-01-19T16:14:44.947Z,70.18
2023-01-19T16:18:07.180Z,69.71
2023-01-19T16:21:29.962Z,70.55
2023-01-19T16:24:51.245Z,70.25
2023-01-19T16:28:13.135Z,70.01
2023-01-19T16:31:35.261Z,70.70
2023-01-19T16:34:56.888Z,70.85
2023-01-19T16:38:20.053Z,71.15
2023-01-19T16:41:42.638Z,70.70
2023-01-19T16:45:04.197Z,70.98
2023-01-19T16:48:26.027Z,71.55
2023-01-19T16:51:47.729Z,70.98
2023-01-19T16:55:12.074Z,71.17
2023-01-19T16:58:33.531Z,71.64
2023-01-19T17:01:55.991Z,71.42
2023-01-19T17:05:17.550Z,71.74
2023-01-19T17:08:40.225Z,72.17
2023-01-19T17:12:03.285Z,72.39
2023-01-19T17:15:24.903Z,71.49
2023-01-19T17:18:46.204Z,71.32
2023-01-19T17:22:08.151Z,71.72
2023-01-19T17:25:29.642Z,71.92
2023-01-19T17:28:53.323Z,73.03
2023-01-19T17:32:15.241Z,72.70
2023-01-19T17:35:37.054Z,73.25
2023-01-19T17:39:00.174Z,73.13
2023-01-19T17:42:21.750Z,73.52
2023-01-19T17:45:44.297Z,73.63
2023-01-19T17:49:07.887Z,73.14
2023-01-19T17:52:29.687Z,73.31
2023-01-19T17:55:50.810Z,73.05
2023-01-19T17:59:12.626Z,73.05
2023-01-19T18:02:35.938Z,73.34
2023-01-19T18:05:57.529Z,72.98
2023-01-19T18:09:20.091Z,72.99
2023-01-19T18:12:41.906Z,72.96
2023-01-19T18:16:05.098Z,72.76
2023-01-19T18:19:28.047Z,73.58
2023-01-19T18:22:50.094Z,72.62
2023-01-19T18:26:16.895Z,72.69
2023-01-19T18:29:38.542Z,72.67
2023-01-19T18:33:00.525Z,72.62
2023-01-19T18:36:24.220Z,72.10
2023-01-19T18:39:46.318Z,72.50
2023-01-19T18:43:08.982Z,72.67
2023-01-19T18:46:30.917Z,72.68
2023-01-19T18:49:52.861Z,72.63
2023-01-19T18:53:16.541Z,72.55
2023-01-19T18:56:38.099Z,72.62
2023-01-19T18:59:59.829Z,72.31
2023-01-19T19:03:22.179Z,72.52
2023-01-19T19:06:44.526Z,72.44
2023-01-19T19:10:09.418Z,72.61
2023-01-19T19:13:30.909Z,72.13
2023-01-19T19:16:52.560Z,73.00
2023-01-19T19:20:14.994Z,72.73
2023-01-19T19:23:37.701Z,73.03
2023-01-19T19:27:01.017Z,73.12
2023-01-19T19:30:22.826Z,72.58
2023-01-19T19:33:45.133Z,72.32
2023-01-19T19:37:07.142Z,72.67
2023-01-19T19:40:29.409Z,73.37
2023-01-19T19:43:52.382Z,72.40
2023-01-19T19:47:14.193Z,73.08
2023-01-19T19:50:35.895Z,73.69
2023-01-19T19:54:00.322Z,74.03
2023-01-19T19:57:21.911Z,73.55
2023-01-19T20:00:45.889Z,73.71
2023-01-19T20:04:10.024Z,73.90
2023-01-19T20:07:31.767Z,73.85
2023-01-19T20:10:53.434Z,73.41
2023-01-19T20:14:16.294Z,73.83
2023-01-19T20:17:39.209Z,73.83
2023-01-19T20:21:01.577Z,73.50
2023-01-19T20:24:23.328Z,73.49
2023-01-19T20:27:45.088Z,73.42
2023-01-19T20:31:14.788Z,73.35
2023-01-19T20:34:39.865Z,73.08
2023-01-19T20:38:02.109Z,72.97
2023-01-19T20:41:24.603Z,73.25
2023-01-19T20:44:46.123Z,73.23
2023-01-19T20:48:08.030Z,73.14
2023-01-19T20:51:30.957Z,73.18
2023-01-19T20:54:53.213Z,73.14
2023-01-19T20:58:14.931Z,73.45
2023-01-19T21:01:37.592Z,73.67
2023-01-19T21:04:59.372Z,73.05
2023-01-19T21:08:22.453Z,73.16
2023-01-19T21:11:44.466Z,73.42
2023-01-19T21:15:07.598Z,73.04
2023-01-19T21:18:29.603Z,72.96
2023-01-19T21:21:51.315Z,73.20
2023-01-19T21:25:14.703Z,73.45
2023-01-19T21:28:36.638Z,73.12
2023-01-19T21:31:58.969Z,73.35
2023-01-19T21:35:20.697Z,72.83
2023-01-19T21:38:42.482Z,73.25
2023-01-19T21:42:05.246Z,73.33
2023-01-19T21:45:26.699Z,73.10
2023-01-19T21:48:48.926Z,73.42
2023-01-19T21:52:10.806Z,73.61
2023-01-19T21:55:32.009Z,72.94
2023-01-19T21:58:55.790Z,73.15
2023-01-19T22:02:29.894Z,73.58
2023-01-19T22:06:04.832Z,73.89
2023-01-19T22:09:26.656Z,74.04
2023-01-19T22:12:47.974Z,74.13
2023-01-19T22:16:13.927Z,74.70
2023-01-19T22:19:35.206Z,74.48
2023-01-19T22:22:56.902Z,75.08
2023-01-19T22:26:18.321Z,75.13
2023-01-19T22:29:39.993Z,75.49
2023-01-19T22:33:02.589Z,75.97
2023-01-19T22:36:25.542Z,76.21
2023-01-19T22:39:47.568Z,76.04
2023-01-19T22:43:09.269Z,76.37
2023-01-19T22:46:33.311Z,76.13
2023-01-19T22:49:56.521Z,76.39
2023-01-19T22:53:18.297Z,76.25
2023-01-19T22:56:40.888Z,76.59
2023-01-19T23:00:02.503Z,76.50
2023-01-19T23:03:24.171Z,75.96
2023-01-19T23:06:50.476Z,75.74
2023-01-19T23:10:12.731Z,76.04
2023-01-19T23:13:34.755Z,75.30
2023-01-19T23:16:56.275Z,75.65
2023-01-19T23:20:18.115Z,75.47
2023-01-19T23:23:41.375Z,75.73
2023-01-19T23:27:03.000Z,76.33
2023-01-19T23:30:24.322Z,76.45
2023-01-19T23:33:46.299Z,76.23
2023-01-19T23:37:07.717Z,76.88
2023-01-19T23:40:30.988Z,76.90
2023-01-19T23:43:53.490Z,77.17
2023-01-19T23:47:15.002Z,76.59
2023-01-19T23:50:39.899Z,76.79
2023-01-19T23:54:02.188Z,76.97
2023-01-19T23:57:25.111Z,76.67
